Time;durP1;ratioP1;P1;durP2;ratioP2;P2;SDS_P1;SDS_P2;PMS_P1;PMS_P2;Temp;Humidity;BMP_temperature;BMP_pressure;BME280_temperature;BME280_humidity;BME280_pressure;Samples;Min_cycle;Max_cycle;Signal;HPM_P1;HPM_P2
2022/02/06 00:00:30;;;;;;;;;;;23.40;46.80;;;;;;1507473;78;701;-70
2022/02/06 00:02:35;;;;;;;;;;;23.30;47.00;;;;;;1508102;77;1648;-69
2022/02/06 00:04:35;;;;;;;;;;;23.40;47.10;;;;;;1508367;77;1647;-70
2022/02/06 00:06:37;;;;;;;;;;;23.40;47.10;;;;;;1515489;77;1916;-70
2022/02/06 00:08:40;;;;;;;;;;;23.50;47.10;;;;;;1515790;77;756;-69
2022/02/06 00:10:42;;;;;;;;;;;23.50;47.10;;;;;;1513573;77;720;-70
2022/02/06 00:12:44;;;;;;;;;;;23.50;47.10;;;;;;1512416;77;1151;-69
2022/02/06 00:14:45;;;;;;;;;;;23.50;47.10;;;;;;1510903;77;761;-70
2022/02/06 00:16:47;;;;;;;;;;;23.40;47.10;;;;;;1514308;77;673;-69
2022/02/06 00:18:49;;;;;;;;;;;23.50;47.20;;;;;;1515514;77;770;-70
2022/02/06 00:20:58;;;;;;;;;;;23.40;47.10;;;;;;1512120;77;735;-70
2022/02/06 00:22:58;;;;;;;;;;;23.50;47.20;;;;;;1516340;77;1744;-70
2022/02/06 00:27:23;;;;;;;;;;;23.40;47.10;;;;;;1515476;77;1907;-70
2022/02/06 00:29:21;;;;;;;;;;;23.40;47.20;;;;;;1508283;77;1204;-71
2022/02/06 00:31:34;;;;;;;;;;;23.30;47.20;;;;;;1516809;77;1695;-69
2022/02/06 00:40:10;;;;;;;;;;;23.30;47.30;;;;;;1511989;77;824;-69
2022/02/06 00:42:12;;;;;;;;;;;23.40;47.20;;;;;;1516243;77;1132;-69
2022/02/06 00:44:14;;;;;;;;;;;23.30;47.20;;;;;;1516205;77;749;-69
2022/02/06 00:46:16;;;;;;;;;;;23.30;47.20;;;;;;1515559;77;1940;-69
2022/02/06 00:48:22;;;;;;;;;;;23.30;47.30;;;;;;1510137;77;780;-69
2022/02/06 00:50:22;;;;;;;;;;;23.30;47.20;;;;;;1509761;77;1631;-69
2022/02/06 00:52:31;;;;;;;;;;;23.30;47.30;;;;;;1509958;77;1140;-69
2022/02/06 00:54:27;;;;;;;;;;;23.40;47.20;;;;;;1515705;77;1623;-70
2022/02/06 00:56:30;;;;;;;;;;;23.40;47.30;;;;;;1515422;77;787;-70
2022/02/06 00:58:32;;;;;;;;;;;23.40;47.30;;;;;;1510169;77;793;-68
2022/02/06 01:00:34;;;;;;;;;;;23.40;47.20;;;;;;1514833;77;769;-69
2022/02/06 01:02:36;;;;;;;;;;;23.40;47.20;;;;;;1514378;77;1151;-69
2022/02/06 01:04:38;;;;;;;;;;;23.50;47.30;;;;;;1513219;77;803;-67
2022/02/06 01:06:40;;;;;;;;;;;23.40;47.30;;;;;;1514957;77;1932;-70
2022/02/06 01:08:42;;;;;;;;;;;23.50;47.30;;;;;;1511903;77;774;-73
2022/02/06 01:10:43;;;;;;;;;;;23.50;47.30;;;;;;1513939;77;764;-69
2022/02/06 01:12:53;;;;;;;;;;;23.40;47.20;;;;;;1515502;77;1064;-69
2022/02/06 01:15:15;;;;;;;;;;;23.40;47.20;;;;;;1512491;77;1600;-69
2022/02/06 01:17:15;;;;;;;;;;;23.40;47.20;;;;;;1503788;77;1100;-70
2022/02/06 01:19:07;;;;;;;;;;;23.40;47.20;;;;;;1508109;77;1477;-70
2022/02/06 01:21:24;;;;;;;;;;;23.40;47.20;;;;;;1506816;77;1665;-69
2022/02/06 01:25:21;;;;;;;;;;;23.40;47.20;;;;;;1480315;77;1119;-70
2022/02/06 01:27:23;;;;;;;;;;;23.50;47.30;;;;;;1505235;77;1920;-71
2022/02/06 01:33:58;;;;;;;;;;;23.50;47.20;;;;;;1510124;77;1684;-70
2022/02/06 01:36:07;;;;;;;;;;;23.40;47.10;;;;;;1507285;77;1460;-70
2022/02/06 01:38:15;;;;;;;;;;;23.40;47.10;;;;;;1506564;77;1177;-70
2022/02/06 01:40:26;;;;;;;;;;;23.40;47.10;;;;;;1508758;77;1656;-70
2022/02/06 01:42:28;;;;;;;;;;;23.50;47.30;;;;;;1504336;77;1503;-69
2022/02/06 01:44:39;;;;;;;;;;;23.40;47.10;;;;;;1505804;77;1623;-70
2022/02/06 01:46:55;;;;;;;;;;;23.50;47.20;;;;;;1502140;77;1921;-72
2022/02/06 02:05:35;;;;;;;;;;;23.50;47.10;;;;;;1490521;78;1201;-73
2022/02/06 02:16:35;;;;;;;;;;;23.40;46.90;;;;;;1504272;77;1648;-71
2022/02/06 02:23:02;;;;;;;;;;;23.40;47.10;;;;;;1498485;77;1195;-75
2022/02/06 02:42:56;;;;;;;;;;;23.40;47.10;;;;;;1506095;77;769;-70
2022/02/06 02:47:40;;;;;;;;;;;23.30;47.30;;;;;;1499420;77;1910;-72
2022/02/06 02:49:49;;;;;;;;;;;23.30;47.30;;;;;;1504915;77;1717;-71
2022/02/06 02:51:47;;;;;;;;;;;23.40;47.20;;;;;;1510414;77;1696;-70
2022/02/06 02:53:57;;;;;;;;;;;23.40;47.20;;;;;;1505263;77;1488;-70
2022/02/06 02:56:06;;;;;;;;;;;23.40;47.20;;;;;;1504347;77;1652;-70
2022/02/06 03:00:22;;;;;;;;;;;23.30;47.20;;;;;;1501711;79;817;-70
2022/02/06 03:02:11;;;;;;;;;;;23.40;47.20;;;;;;1503934;77;1633;-70
2022/02/06 03:04:13;;;;;;;;;;;23.40;47.10;;;;;;1506244;77;736;-70
2022/02/06 03:06:15;;;;;;;;;;;23.40;47.10;;;;;;1506448;78;782;-69
2022/02/06 03:08:18;;;;;;;;;;;23.40;47.00;;;;;;1504951;79;1943;-72
2022/02/06 03:10:20;;;;;;;;;;;23.40;47.10;;;;;;1505416;77;807;-70
2022/02/06 03:12:26;;;;;;;;;;;23.30;47.10;;;;;;1506352;77;1160;-72
2022/02/06 03:14:39;;;;;;;;;;;23.40;47.10;;;;;;1502349;79;1485;-69
2022/02/06 03:16:43;;;;;;;;;;;23.40;47.10;;;;;;1504045;77;1780;-70
2022/02/06 03:18:43;;;;;;;;;;;23.40;47.10;;;;;;1502340;79;1659;-69
2022/02/06 03:20:39;;;;;;;;;;;23.40;47.10;;;;;;1502017;77;1468;-70
2022/02/06 03:22:53;;;;;;;;;;;23.50;47.20;;;;;;1505718;77;1138;-69
2022/02/06 03:24:55;;;;;;;;;;;23.50;47.10;;;;;;1504619;77;1441;-74
2022/02/06 03:26:54;;;;;;;;;;;23.50;47.10;;;;;;1534574;74;220188;-69
2022/02/06 03:28:56;;;;;;;;;;;23.60;47.10;;;;;;1542151;75;727;-69
2022/02/06 03:30:58;;;;;;;;;;;23.60;47.10;;;;;;1543572;75;1199;-69
2022/02/06 03:33:00;;;;;;;;;;;23.60;47.10;;;;;;1585208;74;778;-69
2022/02/06 03:35:02;;;;;;;;;;;23.60;47.10;;;;;;1581556;73;710;-68
2022/02/06 03:37:04;;;;;;;;;;;23.60;47.00;;;;;;1577352;74;800;-68
2022/02/06 03:39:06;;;;;;;;;;;23.60;47.10;;;;;;1590247;73;731;-68
2022/02/06 03:41:11;;;;;;;;;;;23.70;47.30;;;;;;1581437;74;1165;-68
2022/02/06 03:45:19;;;;;;;;;;;23.70;47.20;;;;;;1575686;74;810;-69
2022/02/06 03:47:21;;;;;;;;;;;23.70;47.20;;;;;;1575264;74;1927;-69
2022/02/06 03:49:30;;;;;;;;;;;23.70;47.20;;;;;;1553376;75;1630;-69
2022/02/06 03:51:33;;;;;;;;;;;23.70;47.10;;;;;;1539885;75;1484;-68
2022/02/06 03:53:34;;;;;;;;;;;23.70;47.10;;;;;;1607456;72;1616;-69
2022/02/06 03:55:36;;;;;;;;;;;23.70;47.20;;;;;;1606430;72;713;-69
2022/02/06 03:57:38;;;;;;;;;;;23.70;47.20;;;;;;1604168;72;874;-69
2022/02/06 03:59:40;;;;;;;;;;;23.70;47.20;;;;;;1605647;72;675;-69
2022/02/06 04:01:42;;;;;;;;;;;23.70;47.10;;;;;;1628709;72;1172;-69
2022/02/06 04:03:44;;;;;;;;;;;23.70;47.10;;;;;;1603546;72;737;-69
2022/02/06 04:05:48;;;;;;;;;;;23.80;47.20;;;;;;1625653;72;713;-69
2022/02/06 04:07:51;;;;;;;;;;;23.80;47.20;;;;;;1594520;72;1921;-69
2022/02/06 04:09:55;;;;;;;;;;;23.70;47.20;;;;;;1605391;72;1481;-69
2022/02/06 04:11:57;;;;;;;;;;;23.80;47.20;;;;;;1597029;72;1464;-69
2022/02/06 04:14:20;;;;;;;;;;;23.70;47.20;;;;;;1604439;72;772;-69
2022/02/06 04:16:15;;;;;;;;;;;23.80;47.20;;;;;;1598935;72;1612;-68
2022/02/06 04:18:21;;;;;;;;;;;23.90;47.20;;;;;;1608775;72;1541;-68
2022/02/06 04:20:19;;;;;;;;;;;23.80;47.10;;;;;;1608484;72;1404;-69
2022/02/06 04:22:21;;;;;;;;;;;23.80;47.20;;;;;;1610129;72;769;-69
2022/02/06 04:24:24;;;;;;;;;;;23.80;47.20;;;;;;1604020;72;737;-69
2022/02/06 04:26:26;;;;;;;;;;;23.80;47.10;;;;;;1621136;72;741;-68
2022/02/06 04:28:28;;;;;;;;;;;23.80;47.10;;;;;;1616751;72;1905;-69
2022/02/06 04:30:30;;;;;;;;;;;23.90;47.20;;;;;;1608292;72;1167;-69
2022/02/06 04:32:33;;;;;;;;;;;23.90;47.10;;;;;;1606685;72;745;-69
2022/02/06 04:34:35;;;;;;;;;;;23.80;47.00;;;;;;1611030;72;646;-68
2022/02/06 04:36:55;;;;;;;;;;;23.80;47.10;;;;;;1605789;72;804;-68
2022/02/06 04:41:12;;;;;;;;;;;23.90;47.10;;;;;;1611122;71;1171;-69
2022/02/06 05:26:51;;;;;;;;;;;23.90;46.80;;;;;;1616905;72;858;-69
2022/02/06 05:28:48;;;;;;;;;;;23.90;46.80;;;;;;1602065;72;1931;-69
2022/02/06 05:30:54;;;;;;;;;;;24.00;46.80;;;;;;1604192;72;1211;-68
2022/02/06 05:34:59;;;;;;;;;;;24.00;46.80;;;;;;1604754;72;872;-68
2022/02/06 05:37:01;;;;;;;;;;;24.00;46.80;;;;;;1605310;72;667;-68
2022/02/06 05:39:03;;;;;;;;;;;24.00;46.80;;;;;;1617898;72;706;-68
2022/02/06 05:41:05;;;;;;;;;;;24.00;46.80;;;;;;1616702;72;1179;-69
2022/02/06 05:43:07;;;;;;;;;;;24.00;46.70;;;;;;1607559;72;688;-69
2022/02/06 05:45:09;;;;;;;;;;;24.00;46.80;;;;;;1605358;72;684;-69
2022/02/06 05:47:11;;;;;;;;;;;24.00;46.70;;;;;;1609198;72;754;-70
2022/02/06 05:49:13;;;;;;;;;;;24.00;46.70;;;;;;1605385;72;1940;-69
2022/02/06 05:51:15;;;;;;;;;;;24.10;46.90;;;;;;1614207;72;1144;-69
2022/02/06 05:53:17;;;;;;;;;;;24.10;46.80;;;;;;1607446;72;754;-68
2022/02/06 05:55:19;;;;;;;;;;;24.00;46.70;;;;;;1605968;72;740;-69
2022/02/06 05:57:22;;;;;;;;;;;24.10;46.70;;;;;;1617486;72;829;-69
2022/02/06 05:59:24;;;;;;;;;;;24.10;46.60;;;;;;1609503;72;742;-69
2022/02/06 06:01:25;;;;;;;;;;;24.20;46.60;;;;;;1606839;72;1083;-69
2022/02/06 06:03:27;;;;;;;;;;;24.10;46.50;;;;;;1616890;72;732;-69
2022/02/06 06:05:29;;;;;;;;;;;24.10;46.60;;;;;;1602239;72;743;-69
2022/02/06 06:07:31;;;;;;;;;;;24.10;46.70;;;;;;1606121;72;809;-69
2022/02/06 06:09:33;;;;;;;;;;;24.10;46.70;;;;;;1611711;72;1944;-69
2022/02/06 06:11:35;;;;;;;;;;;24.10;46.70;;;;;;1615304;72;1139;-69
2022/02/06 06:13:37;;;;;;;;;;;24.10;46.70;;;;;;1606426;72;773;-69
2022/02/06 06:15:39;;;;;;;;;;;24.10;46.60;;;;;;1613136;72;710;-69
2022/02/06 06:17:41;;;;;;;;;;;24.10;46.60;;;;;;1594306;72;788;-69
2022/02/06 06:19:46;;;;;;;;;;;24.20;46.60;;;;;;1608950;72;792;-69
2022/02/06 06:21:47;;;;;;;;;;;24.20;46.50;;;;;;1616690;72;1720;-69
2022/02/06 06:23:50;;;;;;;;;;;24.20;46.50;;;;;;1615443;72;808;-69
2022/02/06 06:25:52;;;;;;;;;;;24.10;46.40;;;;;;1617651;72;791;-69
2022/02/06 06:27:55;;;;;;;;;;;24.20;46.40;;;;;;1605318;72;1917;-69
2022/02/06 06:29:57;;;;;;;;;;;24.20;46.40;;;;;;1605782;72;725;-69
2022/02/06 06:31:59;;;;;;;;;;;24.20;46.40;;;;;;1605321;72;1087;-69
2022/02/06 06:34:01;;;;;;;;;;;24.20;46.40;;;;;;1612169;72;746;-69
2022/02/06 06:36:04;;;;;;;;;;;24.20;46.40;;;;;;1606291;72;790;-69
2022/02/06 06:38:06;;;;;;;;;;;24.20;46.30;;;;;;1607987;72;679;-69
2022/02/06 06:40:08;;;;;;;;;;;24.20;46.30;;;;;;1616766;72;1172;-69
2022/02/06 06:42:10;;;;;;;;;;;24.20;46.40;;;;;;1608025;72;753;-69
2022/02/06 06:44:12;;;;;;;;;;;24.20;46.50;;;;;;1624801;72;748;-69
2022/02/06 06:46:13;;;;;;;;;;;24.20;46.50;;;;;;1612122;72;704;-69
2022/02/06 06:48:15;;;;;;;;;;;24.20;46.50;;;;;;1625211;71;1940;-70
2022/02/06 06:50:17;;;;;;;;;;;24.10;46.70;;;;;;1611678;72;1097;-69
2022/02/06 06:52:19;;;;;;;;;;;24.00;46.70;;;;;;1614778;72;732;-69
2022/02/06 06:54:22;;;;;;;;;;;24.10;46.80;;;;;;1607286;72;689;-69
2022/02/06 06:56:39;;;;;;;;;;;24.10;46.70;;;;;;1605428;72;698;-69
2022/02/06 06:58:37;;;;;;;;;;;24.10;46.70;;;;;;1604762;72;1476;-69
2022/02/06 07:00:55;;;;;;;;;;;24.10;46.70;;;;;;1604440;72;1179;-69
2022/02/06 07:02:47;;;;;;;;;;;24.20;46.70;;;;;;1601981;72;1671;-70
2022/02/06 07:04:57;;;;;;;;;;;24.20;46.60;;;;;;1605105;72;723;-70
2022/02/06 07:06:59;;;;;;;;;;;24.20;46.60;;;;;;1611599;72;722;-69
2022/02/06 07:09:00;;;;;;;;;;;24.20;46.70;;;;;;1605400;72;1940;-70
2022/02/06 07:11:02;;;;;;;;;;;24.20;46.80;;;;;;1604162;72;1103;-69
2022/02/06 07:13:04;;;;;;;;;;;24.20;46.80;;;;;;1605513;72;700;-69
2022/02/06 07:15:06;;;;;;;;;;;24.10;47.00;;;;;;1607043;72;730;-70
2022/02/06 07:17:08;;;;;;;;;;;24.20;47.00;;;;;;1605534;72;598;-69
2022/02/06 07:19:10;;;;;;;;;;;24.20;47.10;;;;;;1603991;72;1002;-69
2022/02/06 07:21:12;;;;;;;;;;;24.20;47.00;;;;;;1604060;72;1150;-69
2022/02/06 07:23:14;;;;;;;;;;;24.20;46.70;;;;;;1605917;72;719;-70
2022/02/06 07:25:15;;;;;;;;;;;24.30;46.70;;;;;;1606724;72;707;-70
2022/02/06 07:29:22;;;;;;;;;;;24.30;46.40;;;;;;1611945;72;1914;-75
2022/02/06 07:31:24;;;;;;;;;;;24.40;46.30;;;;;;1603390;72;1220;-70
2022/02/06 07:33:26;;;;;;;;;;;24.30;46.20;;;;;;1605244;73;781;-70
2022/02/06 07:35:28;;;;;;;;;;;24.40;46.10;;;;;;1605568;73;793;-69
2022/02/06 07:37:30;;;;;;;;;;;24.30;46.10;;;;;;1605095;73;706;-69
2022/02/06 07:39:32;;;;;;;;;;;24.30;46.00;;;;;;1605124;73;749;-69
2022/02/06 07:41:34;;;;;;;;;;;24.40;46.00;;;;;;1604914;73;1152;-70
2022/02/06 07:43:36;;;;;;;;;;;24.30;45.90;;;;;;1605016;73;647;-70
2022/02/06 07:45:39;;;;;;;;;;;24.40;45.90;;;;;;1601457;73;763;-70
2022/02/06 07:47:44;;;;;;;;;;;24.30;45.90;;;;;;1597874;73;557;-71
2022/02/06 07:49:47;;;;;;;;;;;24.30;45.90;;;;;;1605010;73;1942;-70
2022/02/06 07:51:49;;;;;;;;;;;24.30;46.00;;;;;;1605517;73;1599;-68
2022/02/06 07:53:50;;;;;;;;;;;24.30;46.00;;;;;;1621176;73;770;-68
2022/02/06 07:55:52;;;;;;;;;;;24.30;46.10;;;;;;1605743;72;689;-68
2022/02/06 07:57:55;;;;;;;;;;;24.20;46.10;;;;;;1604894;73;798;-68
2022/02/06 07:59:57;;;;;;;;;;;24.20;46.20;;;;;;1604465;73;783;-68
2022/02/06 08:01:59;;;;;;;;;;;24.30;46.40;;;;;;1604991;73;1117;-68
2022/02/06 08:04:01;;;;;;;;;;;24.30;46.40;;;;;;1606282;73;709;-68
2022/02/06 08:06:03;;;;;;;;;;;24.30;46.70;;;;;;1607493;73;659;-68
2022/02/06 08:08:12;;;;;;;;;;;24.20;46.70;;;;;;1605377;73;775;-68
2022/02/06 08:10:09;;;;;;;;;;;24.30;46.60;;;;;;1599276;72;1917;-68
2022/02/06 08:12:11;;;;;;;;;;;24.40;46.50;;;;;;1605036;73;693;-68
2022/02/06 08:14:49;;;;;;;;;;;24.30;46.50;;;;;;1611819;73;796;-68
2022/02/06 08:16:17;;;;;;;;;;;24.40;46.50;;;;;;1604568;73;1403;-69
2022/02/06 08:18:19;;;;;;;;;;;24.40;46.40;;;;;;1617505;73;713;-69
2022/02/06 08:20:22;;;;;;;;;;;24.30;46.40;;;;;;1603585;73;1117;-69
2022/02/06 08:22:24;;;;;;;;;;;24.40;46.40;;;;;;1619888;73;774;-69
2022/02/06 08:24:26;;;;;;;;;;;24.30;46.30;;;;;;1596842;73;772;-69
2022/02/06 08:26:28;;;;;;;;;;;24.40;46.30;;;;;;1609617;73;740;-70
2022/02/06 08:28:29;;;;;;;;;;;24.40;46.30;;;;;;1613234;73;1932;-69
2022/02/06 08:30:31;;;;;;;;;;;24.50;46.30;;;;;;1605137;74;1143;-69
2022/02/06 08:32:33;;;;;;;;;;;24.40;46.20;;;;;;1605122;73;814;-69
2022/02/06 08:34:35;;;;;;;;;;;24.40;46.20;;;;;;1606660;73;715;-69
2022/02/06 08:36:37;;;;;;;;;;;24.30;46.20;;;;;;1605016;73;766;-69
2022/02/06 08:38:39;;;;;;;;;;;24.40;46.10;;;;;;1592264;73;737;-70
2022/02/06 08:40:41;;;;;;;;;;;24.50;46.20;;;;;;1600254;73;1187;-69
2022/02/06 08:42:43;;;;;;;;;;;24.50;46.10;;;;;;1606060;73;1099;-69
2022/02/06 08:44:46;;;;;;;;;;;24.50;46.00;;;;;;1605090;73;768;-68
2022/02/06 08:46:48;;;;;;;;;;;24.50;46.00;;;;;;1604966;73;774;-69
2022/02/06 08:48:50;;;;;;;;;;;24.50;46.00;;;;;;1605006;73;1940;-69
2022/02/06 08:50:51;;;;;;;;;;;24.50;46.00;;;;;;1600333;73;1139;-69
2022/02/06 08:52:58;;;;;;;;;;;24.50;46.00;;;;;;1605134;73;702;-69
2022/02/06 08:54:58;;;;;;;;;;;24.50;45.80;;;;;;1607260;72;1432;-69
2022/02/06 08:57:02;;;;;;;;;;;24.40;45.70;;;;;;1600199;73;621;-69
2022/02/06 08:59:03;;;;;;;;;;;24.40;45.70;;;;;;1599503;73;1484;-69
2022/02/06 09:01:05;;;;;;;;;;;24.40;45.70;;;;;;1609496;73;1152;-68
2022/02/06 09:03:07;;;;;;;;;;;24.40;45.60;;;;;;1599504;73;767;-69
2022/02/06 09:05:09;;;;;;;;;;;24.40;45.60;;;;;;1605144;73;717;-69
2022/02/06 09:07:11;;;;;;;;;;;24.40;45.60;;;;;;1602810;73;629;-69
2022/02/06 09:09:15;;;;;;;;;;;24.40;45.50;;;;;;1605127;73;1910;-69
2022/02/06 09:11:16;;;;;;;;;;;24.40;45.50;;;;;;1610470;73;1152;-69
2022/02/06 09:13:19;;;;;;;;;;;24.30;45.50;;;;;;1612358;73;723;-69
2022/02/06 09:15:21;;;;;;;;;;;24.30;45.50;;;;;;1613053;73;728;-69
2022/02/06 09:17:23;;;;;;;;;;;24.40;45.60;;;;;;1602475;73;805;-68
2022/02/06 09:19:25;;;;;;;;;;;24.40;45.60;;;;;;1604135;73;800;-69
2022/02/06 09:21:27;;;;;;;;;;;24.40;45.60;;;;;;1605203;73;1152;-69
2022/02/06 09:23:29;;;;;;;;;;;24.30;45.50;;;;;;1605000;73;704;-69
2022/02/06 09:25:31;;;;;;;;;;;24.40;45.50;;;;;;1597519;73;780;-69
2022/02/06 09:27:37;;;;;;;;;;;24.50;45.50;;;;;;1594846;72;220573;-69
2022/02/06 09:29:37;;;;;;;;;;;24.40;45.40;;;;;;1578658;73;1930;-69
2022/02/06 09:31:39;;;;;;;;;;;24.50;45.50;;;;;;1588515;73;637;-67
2022/02/06 09:35:42;;;;;;;;;;;24.50;45.40;;;;;;1546999;74;754;-69
2022/02/06 09:37:44;;;;;;;;;;;24.50;45.30;;;;;;1502280;77;1191;-69
2022/02/06 09:39:46;;;;;;;;;;;24.50;45.30;;;;;;1553120;74;731;-70
2022/02/06 09:41:48;;;;;;;;;;;24.50;45.30;;;;;;1543898;74;826;-68
2022/02/06 09:43:50;;;;;;;;;;;24.50;45.30;;;;;;1555638;74;760;-68
2022/02/06 09:45:52;;;;;;;;;;;24.60;45.20;;;;;;1545912;74;1142;-69
2022/02/06 09:47:54;;;;;;;;;;;24.50;45.20;;;;;;1528476;76;734;-67
2022/02/06 09:49:56;;;;;;;;;;;24.50;45.20;;;;;;1541943;75;1931;-68
2022/02/06 09:51:58;;;;;;;;;;;24.50;45.10;;;;;;1531509;75;779;-69
2022/02/06 09:54:02;;;;;;;;;;;24.50;45.10;;;;;;1535188;75;702;-69
2022/02/06 09:56:08;;;;;;;;;;;24.50;45.00;;;;;;1536849;75;1659;-68
2022/02/06 09:59:17;;;;;;;;;;;24.50;45.00;;;;;;1535076;75;1079;-69
2022/02/06 10:00:21;;;;;;;;;;;24.60;45.00;;;;;;1528618;76;1106;-68
2022/02/06 10:02:31;;;;;;;;;;;24.60;44.80;;;;;;1534717;75;813;-68
2022/02/06 10:04:34;;;;;;;;;;;24.60;44.80;;;;;;1530196;75;695;-69
2022/02/06 10:06:54;;;;;;;;;;;24.60;44.80;;;;;;1527213;75;1136;-68
2022/02/06 10:08:56;;;;;;;;;;;24.60;44.70;;;;;;1538087;75;776;-70
2022/02/06 10:11:00;;;;;;;;;;;24.70;44.80;;;;;;1539130;75;1916;-70
2022/02/06 10:13:02;;;;;;;;;;;24.60;44.70;;;;;;1548076;75;726;-68
2022/02/06 10:15:04;;;;;;;;;;;24.60;44.70;;;;;;1532067;75;762;-69
2022/02/06 10:17:06;;;;;;;;;;;24.60;44.60;;;;;;1539407;75;1179;-68
2022/02/06 10:19:08;;;;;;;;;;;24.70;44.70;;;;;;1530304;75;816;-68
2022/02/06 10:21:14;;;;;;;;;;;24.60;44.50;;;;;;1544639;75;824;-68
2022/02/06 10:25:47;;;;;;;;;;;24.70;44.60;;;;;;1506547;75;1151;-73
2022/02/06 10:27:52;;;;;;;;;;;24.70;44.50;;;;;;1534354;75;1627;-70
2022/02/06 10:29:59;;;;;;;;;;;24.60;44.40;;;;;;1529255;75;1918;-68
2022/02/06 10:32:02;;;;;;;;;;;24.70;44.50;;;;;;1532833;75;855;-70
2022/02/06 10:34:04;;;;;;;;;;;24.60;44.30;;;;;;1518411;76;809;-69
2022/02/06 10:36:06;;;;;;;;;;;24.70;44.40;;;;;;1554164;75;1114;-68
2022/02/06 10:38:16;;;;;;;;;;;24.70;44.40;;;;;;1541589;75;666;-69
2022/02/06 10:40:18;;;;;;;;;;;24.70;44.40;;;;;;1528012;75;779;-69
2022/02/06 10:42:20;;;;;;;;;;;24.60;44.30;;;;;;1536875;75;817;-67
2022/02/06 10:44:22;;;;;;;;;;;24.60;44.20;;;;;;1540956;75;814;-70
2022/02/06 10:46:26;;;;;;;;;;;24.70;44.40;;;;;;1514287;76;1299;-71
2022/02/06 10:48:27;;;;;;;;;;;24.70;44.40;;;;;;1539507;75;1072;-68
2022/02/06 10:50:30;;;;;;;;;;;24.60;44.20;;;;;;1540963;75;1946;-69
2022/02/06 10:52:32;;;;;;;;;;;24.70;44.40;;;;;;1540008;75;779;-69
2022/02/06 10:54:35;;;;;;;;;;;24.70;44.30;;;;;;1547624;75;685;-69
2022/02/06 10:56:40;;;;;;;;;;;24.70;44.40;;;;;;1528793;75;1146;-69
2022/02/06 10:58:41;;;;;;;;;;;24.70;44.40;;;;;;1540777;75;1683;-70
2022/02/06 11:00:43;;;;;;;;;;;24.60;44.10;;;;;;1538937;75;742;-71
2022/02/06 11:02:59;;;;;;;;;;;24.60;44.10;;;;;;1541026;75;811;-69
2022/02/06 11:04:56;;;;;;;;;;;24.70;44.20;;;;;;1538497;75;1639;-69
2022/02/06 11:07:15;;;;;;;;;;;24.50;44.20;;;;;;1537618;75;1132;-72
2022/02/06 11:09:26;;;;;;;;;;;24.60;44.20;;;;;;1535976;75;1491;-74
2022/02/06 11:11:33;;;;;;;;;;;24.60;44.20;;;;;;1551258;75;735;-69
2022/02/06 11:13:36;;;;;;;;;;;24.50;44.20;;;;;;1545664;75;1826;-66
2022/02/06 11:15:41;;;;;;;;;;;24.60;44.20;;;;;;1529211;75;752;-72
2022/02/06 11:17:42;;;;;;;;;;;24.60;44.20;;;;;;1546614;75;1640;-70
2022/02/06 11:20:02;;;;;;;;;;;24.50;44.20;;;;;;1551429;75;809;-71
2022/02/06 11:22:08;;;;;;;;;;;24.50;44.20;;;;;;1540725;75;793;-70
2022/02/06 11:24:12;;;;;;;;;;;24.50;44.20;;;;;;1536972;75;883;-69
2022/02/06 11:26:19;;;;;;;;;;;24.50;44.20;;;;;;1529187;75;1923;-68
2022/02/06 11:28:21;;;;;;;;;;;24.50;44.20;;;;;;1540458;75;1762;-72
2022/02/06 11:30:22;;;;;;;;;;;24.50;44.30;;;;;;1541544;75;1950;-68
2022/02/06 11:32:26;;;;;;;;;;;24.50;44.20;;;;;;1534907;75;828;-69
2022/02/06 11:34:28;;;;;;;;;;;24.50;44.20;;;;;;1542251;75;706;-68
2022/02/06 11:43:54;;;;;;;;;;;24.40;44.20;;;;;;1540958;75;1616;-69
2022/02/06 11:45:57;;;;;;;;;;;24.40;44.20;;;;;;1541068;75;2087;-70
2022/02/06 11:48:04;;;;;;;;;;;24.30;44.20;;;;;;1536616;75;831;-68
2022/02/06 11:50:09;;;;;;;;;;;24.30;44.30;;;;;;1539164;75;1911;-69
2022/02/06 11:52:10;;;;;;;;;;;24.30;44.30;;;;;;1534883;75;874;-71
2022/02/06 11:54:27;;;;;;;;;;;24.30;44.40;;;;;;1537201;75;757;-69
2022/02/06 11:56:31;;;;;;;;;;;24.30;44.40;;;;;;1550153;75;1142;-71
2022/02/06 11:58:34;;;;;;;;;;;24.30;44.40;;;;;;1540977;75;905;-69
2022/02/06 12:00:35;;;;;;;;;;;24.20;44.30;;;;;;1528784;75;699;-68
2022/02/06 12:02:38;;;;;;;;;;;24.20;44.30;;;;;;1540595;75;807;-69
2022/02/06 12:04:40;;;;;;;;;;;24.20;44.40;;;;;;1553041;75;702;-70
2022/02/06 12:06:49;;;;;;;;;;;24.20;44.40;;;;;;1541438;75;1141;-69
2022/02/06 12:09:01;;;;;;;;;;;24.20;44.40;;;;;;1530073;75;795;-67
2022/02/06 12:11:05;;;;;;;;;;;24.20;44.40;;;;;;1535673;75;1952;-70
2022/02/06 12:13:27;;;;;;;;;;;24.20;44.40;;;;;;1533997;75;786;-68
2022/02/06 12:15:31;;;;;;;;;;;24.10;44.40;;;;;;1532562;75;1596;-69
2022/02/06 12:17:45;;;;;;;;;;;24.20;44.40;;;;;;1532852;75;1662;-69
2022/02/06 12:19:39;;;;;;;;;;;24.10;44.50;;;;;;1532595;75;1742;-72
2022/02/06 12:21:41;;;;;;;;;;;24.10;44.50;;;;;;1541040;75;779;-68
2022/02/06 12:23:50;;;;;;;;;;;24.10;44.40;;;;;;1532431;75;764;-68
2022/02/06 12:25:47;;;;;;;;;;;24.10;44.50;;;;;;1528723;75;1606;-68
2022/02/06 12:27:50;;;;;;;;;;;24.10;44.50;;;;;;1529580;75;1121;-69
2022/02/06 12:29:59;;;;;;;;;;;24.10;44.40;;;;;;1530013;75;1940;-69
2022/02/06 12:32:03;;;;;;;;;;;24.20;44.40;;;;;;1535241;75;824;-71
2022/02/06 12:38:32;;;;;;;;;;;24.20;44.40;;;;;;1534902;76;1677;-68
2022/02/06 12:40:34;;;;;;;;;;;24.20;44.30;;;;;;1534996;75;732;-69
2022/02/06 12:42:41;;;;;;;;;;;24.20;44.30;;;;;;1530413;75;680;-69
2022/02/06 12:44:40;;;;;;;;;;;24.20;44.30;;;;;;1551249;75;1621;-68
2022/02/06 12:46:42;;;;;;;;;;;24.20;44.30;;;;;;1552740;75;1162;-67
2022/02/06 12:48:44;;;;;;;;;;;24.20;44.20;;;;;;1528173;75;797;-73
2022/02/06 12:50:46;;;;;;;;;;;24.20;44.20;;;;;;1526413;75;1948;-70
2022/02/06 12:52:48;;;;;;;;;;;24.20;44.20;;;;;;1539664;76;1336;-71
2022/02/06 12:54:50;;;;;;;;;;;24.20;44.20;;;;;;1576818;73;822;-71
2022/02/06 12:56:53;;;;;;;;;;;24.20;44.20;;;;;;1587196;73;1149;-69
2022/02/06 12:58:56;;;;;;;;;;;24.20;44.20;;;;;;1573587;73;1839;-68
2022/02/06 13:00:58;;;;;;;;;;;24.20;44.20;;;;;;1579757;73;720;-68
2022/02/06 13:03:27;;;;;;;;;;;24.10;44.20;;;;;;1574908;73;720;-68
2022/02/06 13:05:27;;;;;;;;;;;24.10;44.20;;;;;;1578822;73;1749;-69
2022/02/06 13:07:30;;;;;;;;;;;24.10;44.20;;;;;;1575696;73;1129;-69
2022/02/06 13:09:43;;;;;;;;;;;24.20;44.20;;;;;;1583739;73;680;-68
2022/02/06 13:11:45;;;;;;;;;;;24.10;44.20;;;;;;1576973;73;1926;-68
2022/02/06 13:13:58;;;;;;;;;;;24.20;44.20;;;;;;1583114;73;694;-70
2022/02/06 13:16:05;;;;;;;;;;;24.10;44.20;;;;;;1577452;73;1833;-71
2022/02/06 13:18:28;;;;;;;;;;;24.10;44.20;;;;;;1573092;73;1656;-71
2022/02/06 13:23:10;;;;;;;;;;;24.10;44.20;;;;;;1582884;73;692;-68
2022/02/06 13:27:02;;;;;;;;;;;24.00;44.10;;;;;;1586816;73;1168;-69
2022/02/06 13:29:03;;;;;;;;;;;24.10;44.20;;;;;;1582153;73;1634;-72
2022/02/06 13:33:12;;;;;;;;;;;24.10;44.20;;;;;;1587222;73;853;-70
2022/02/06 13:35:25;;;;;;;;;;;24.00;44.00;;;;;;1593799;73;1594;-72
2022/02/06 13:37:25;;;;;;;;;;;24.10;44.10;;;;;;1596617;73;1694;-70
2022/02/06 13:39:24;;;;;;;;;;;24.10;44.20;;;;;;1577299;73;1843;-68
2022/02/06 13:41:24;;;;;;;;;;;24.10;44.20;;;;;;1578112;73;1606;-69
2022/02/06 13:43:26;;;;;;;;;;;24.10;44.20;;;;;;1574228;73;1635;-67
2022/02/06 13:45:29;;;;;;;;;;;24.00;44.00;;;;;;1585338;73;789;-69
2022/02/06 13:47:31;;;;;;;;;;;24.10;44.10;;;;;;1589830;73;1138;-68
2022/02/06 13:49:41;;;;;;;;;;;24.00;44.00;;;;;;1594918;73;782;-68
2022/02/06 13:51:44;;;;;;;;;;;24.00;44.00;;;;;;1573848;73;1940;-68
2022/02/06 13:53:57;;;;;;;;;;;24.10;44.10;;;;;;1579658;73;1652;-68
2022/02/06 13:56:06;;;;;;;;;;;24.00;44.00;;;;;;1578820;73;1152;-69
2022/02/06 13:58:07;;;;;;;;;;;24.00;43.90;;;;;;1580252;73;1569;-66
2022/02/06 14:00:10;;;;;;;;;;;24.00;44.00;;;;;;1579247;73;1864;-69
2022/02/06 14:02:12;;;;;;;;;;;24.00;43.90;;;;;;1574842;73;873;-68
2022/02/06 14:04:29;;;;;;;;;;;24.00;43.90;;;;;;1574809;73;744;-68
2022/02/06 14:06:40;;;;;;;;;;;24.00;43.90;;;;;;1578756;73;1540;-66
2022/02/06 14:08:59;;;;;;;;;;;24.00;44.00;;;;;;1581278;73;1055;-69
2022/02/06 14:11:10;;;;;;;;;;;24.00;44.00;;;;;;1578573;73;1930;-69
2022/02/06 14:13:04;;;;;;;;;;;24.00;44.00;;;;;;1578134;73;1557;-68
2022/02/06 14:15:06;;;;;;;;;;;24.00;44.00;;;;;;1581038;73;838;-66
2022/02/06 14:17:12;;;;;;;;;;;24.00;44.00;;;;;;1582733;73;1130;-68
2022/02/06 14:19:13;;;;;;;;;;;24.00;44.00;;;;;;1565516;74;1645;-69
2022/02/06 14:21:16;;;;;;;;;;;24.00;44.00;;;;;;1595900;73;826;-69
2022/02/06 14:23:18;;;;;;;;;;;23.90;44.00;;;;;;1584767;73;808;-69
2022/02/06 14:25:27;;;;;;;;;;;24.00;44.00;;;;;;1581944;73;779;-69
2022/02/06 14:27:31;;;;;;;;;;;24.00;43.90;;;;;;1574621;73;1175;-74
2022/02/06 14:29:33;;;;;;;;;;;24.00;43.90;;;;;;1582551;73;816;-69
2022/02/06 14:31:35;;;;;;;;;;;24.00;43.90;;;;;;1576747;73;1922;-69
2022/02/06 14:33:38;;;;;;;;;;;24.00;43.90;;;;;;1580986;73;756;-69
2022/02/06 14:35:50;;;;;;;;;;;24.00;43.90;;;;;;1595901;73;767;-70
2022/02/06 14:37:54;;;;;;;;;;;24.00;43.90;;;;;;1579252;73;1551;-70